createdAt,value
2023-01-10T00:00:38.880Z,3.80
2023-01-10T00:03:08.302Z,3.80
2023-01-10T00:05:37.592Z,3.80
2023-01-10T00:08:05.829Z,3.80
2023-01-10T00:10:33.309Z,3.90
2023-01-10T00:13:19.154Z,3.90
2023-01-10T00:15:46.271Z,3.90
2023-01-10T00:18:13.328Z,3.90
2023-01-10T00:20:40.093Z,3.90
2023-01-10T00:23:06.974Z,3.90
2023-01-10T00:25:35.986Z,3.90
2023-01-10T00:28:20.236Z,3.90
2023-01-10T00:30:55.791Z,4.00
2023-01-10T00:33:23.804Z,4.00
2023-01-10T00:35:50.691Z,3.90
2023-01-10T00:38:17.587Z,3.90
2023-01-10T00:40:45.768Z,3.90
2023-01-10T00:43:31.545Z,3.90
2023-01-10T00:45:58.499Z,4.00
2023-01-10T00:48:25.485Z,4.00
2023-01-10T00:50:52.322Z,3.90
2023-01-10T00:53:19.124Z,3.90
2023-01-10T00:55:46.191Z,4.00
2023-01-10T00:58:16.818Z,4.00
2023-01-10T01:00:49.545Z,4.00
2023-01-10T01:03:19.518Z,4.00
2023-01-10T01:05:47.186Z,4.00
2023-01-10T01:08:16.122Z,4.00
2023-01-10T01:10:42.885Z,4.00
2023-01-10T01:13:11.047Z,4.10
2023-01-10T01:15:37.994Z,4.00
2023-01-10T01:18:05.921Z,3.90
2023-01-10T01:20:33.114Z,3.90
2023-01-10T01:23:01.102Z,3.80
2023-01-10T01:25:27.907Z,3.80
2023-01-10T01:27:54.689Z,3.80
2023-01-10T01:30:21.505Z,3.80
2023-01-10T01:32:48.262Z,3.70
2023-01-10T01:35:16.274Z,3.80
2023-01-10T01:37:43.923Z,3.80
2023-01-10T01:40:21.598Z,3.80
2023-01-10T01:42:49.452Z,3.80
2023-01-10T01:45:33.834Z,3.80
2023-01-10T01:48:14.152Z,3.80
2023-01-10T01:51:07.822Z,3.80
2023-01-10T01:53:40.553Z,3.80
2023-01-10T01:56:14.302Z,3.80
2023-01-10T01:59:12.337Z,3.80
2023-01-10T02:01:42.051Z,3.80
2023-01-10T02:04:23.440Z,3.80
2023-01-10T02:06:53.384Z,3.80
2023-01-10T02:09:33.267Z,3.80
2023-01-10T02:12:01.353Z,3.80
2023-01-10T02:14:31.124Z,3.80
2023-01-10T02:16:57.888Z,3.80
2023-01-10T02:19:53.792Z,3.80
2023-01-10T02:22:26.483Z,3.80
2023-01-10T02:25:12.060Z,3.80
2023-01-10T02:27:51.515Z,3.80
2023-01-10T02:30:37.554Z,3.80
2023-01-10T02:33:11.557Z,3.90
2023-01-10T02:36:04.083Z,3.90
2023-01-10T02:38:43.965Z,3.80
2023-01-10T02:41:18.751Z,3.80
2023-01-10T02:43:58.543Z,3.80
2023-01-10T02:46:29.253Z,3.80
2023-01-10T02:48:56.494Z,3.80
2023-01-10T02:51:24.558Z,3.80
2023-01-10T02:54:10.015Z,3.80
2023-01-10T02:56:51.635Z,3.80
2023-01-10T02:59:59.664Z,3.80
2023-01-10T03:02:37.901Z,3.80
2023-01-10T03:05:40.415Z,3.70
2023-01-10T03:08:16.190Z,3.70
2023-01-10T03:11:10.370Z,3.70
2023-01-10T03:13:43.324Z,3.70
2023-01-10T03:16:15.710Z,3.70
2023-01-10T03:18:57.598Z,3.70
2023-01-10T03:21:25.426Z,3.70
2023-01-10T03:23:56.389Z,3.70
2023-01-10T03:26:47.354Z,3.70
2023-01-10T03:29:20.686Z,3.70
2023-01-10T03:31:59.828Z,3.70
2023-01-10T03:34:27.289Z,3.70
2023-01-10T03:37:22.468Z,3.70
2023-01-10T03:39:57.961Z,3.70
2023-01-10T03:43:14.614Z,3.70
2023-01-10T03:45:58.517Z,3.70
2023-01-10T03:48:29.470Z,3.80
2023-01-10T03:50:58.973Z,3.80
2023-01-10T03:53:26.291Z,3.80
2023-01-10T03:55:53.135Z,3.80
2023-01-10T03:58:21.946Z,3.80
2023-01-10T04:00:49.352Z,3.80
2023-01-10T04:03:16.984Z,3.80
2023-01-10T04:05:43.777Z,3.90
2023-01-10T04:08:10.618Z,3.90
2023-01-10T04:10:38.138Z,3.90
2023-01-10T04:13:05.366Z,3.90
2023-01-10T04:15:32.750Z,3.90
2023-01-10T04:17:59.530Z,3.90
2023-01-10T04:20:29.230Z,3.90
2023-01-10T04:22:56.053Z,3.90
2023-01-10T04:25:24.040Z,3.90
2023-01-10T04:27:51.845Z,4.00
2023-01-10T04:30:19.804Z,4.00
2023-01-10T04:32:47.614Z,4.00
2023-01-10T04:35:14.762Z,3.90
2023-01-10T04:37:41.627Z,4.00
2023-01-10T04:40:09.140Z,4.00
2023-01-10T04:42:35.951Z,4.00
2023-01-10T04:45:03.042Z,4.00
2023-01-10T04:47:29.827Z,4.00
2023-01-10T04:49:56.600Z,3.90
2023-01-10T04:52:26.130Z,3.90
2023-01-10T04:54:52.981Z,3.80
2023-01-10T04:57:19.810Z,3.80
2023-01-10T04:59:46.656Z,3.80
2023-01-10T05:02:13.537Z,3.70
2023-01-10T05:04:40.403Z,3.70
2023-01-10T05:07:07.208Z,3.70
2023-01-10T05:09:33.983Z,3.60
2023-01-10T05:12:00.779Z,3.60
2023-01-10T05:14:27.559Z,3.60
2023-01-10T05:16:54.424Z,3.60
2023-01-10T05:19:21.255Z,3.60
2023-01-10T05:21:48.101Z,3.60
2023-01-10T05:24:14.860Z,3.60
2023-01-10T05:26:41.697Z,3.60
2023-01-10T05:29:11.461Z,3.60
2023-01-10T05:31:38.358Z,3.60
2023-01-10T05:34:05.241Z,3.60
2023-01-10T05:36:32.065Z,3.60
2023-01-10T05:38:58.905Z,3.60
2023-01-10T05:41:25.729Z,3.60
2023-01-10T05:43:53.268Z,3.60
2023-01-10T05:46:20.083Z,3.60
2023-01-10T05:48:46.846Z,3.60
2023-01-10T05:51:13.663Z,3.60
2023-01-10T05:53:40.447Z,3.60
2023-01-10T05:56:07.867Z,3.60
2023-01-10T05:58:34.689Z,3.60
2023-01-10T06:01:01.711Z,3.60
2023-01-10T06:03:28.540Z,3.60
2023-01-10T06:05:55.912Z,3.60
2023-01-10T06:08:23.647Z,3.60
2023-01-10T06:10:50.807Z,3.60
2023-01-10T06:13:17.692Z,3.60
2023-01-10T06:15:44.904Z,3.70
2023-01-10T06:18:12.535Z,3.70
2023-01-10T06:20:40.237Z,3.70
2023-01-10T06:23:07.392Z,3.70
2023-01-10T06:25:37.066Z,3.70
2023-01-10T06:28:04.405Z,3.70
2023-01-10T06:30:31.248Z,3.80
2023-01-10T06:33:06.078Z,3.80
2023-01-10T06:35:33.439Z,3.80
2023-01-10T06:38:00.288Z,3.80
2023-01-10T06:40:28.291Z,3.80
2023-01-10T06:42:55.220Z,3.80
2023-01-10T06:45:34.790Z,3.80
2023-01-10T06:48:01.986Z,3.80
2023-01-10T06:50:29.342Z,3.90
2023-01-10T06:53:01.744Z,3.90
2023-01-10T06:55:28.906Z,3.90
2023-01-10T06:58:00.852Z,3.90
2023-01-10T07:00:29.065Z,3.90
2023-01-10T07:02:58.781Z,3.90
2023-01-10T07:05:25.960Z,3.90
2023-01-10T07:07:52.941Z,3.90
2023-01-10T07:10:19.848Z,3.90
2023-01-10T07:12:46.645Z,3.90
2023-01-10T07:15:13.482Z,3.90
2023-01-10T07:17:40.383Z,3.80
2023-01-10T07:20:07.872Z,3.90
2023-01-10T07:22:34.753Z,3.90
2023-01-10T07:25:01.614Z,3.90
2023-01-10T07:27:31.465Z,3.90
2023-01-10T07:29:58.654Z,3.90
2023-01-10T07:32:26.579Z,3.90
2023-01-10T07:34:53.394Z,3.90
2023-01-10T07:37:20.334Z,3.90
2023-01-10T07:39:47.194Z,3.90
2023-01-10T07:42:13.997Z,3.90
2023-01-10T07:44:40.804Z,3.90
2023-01-10T07:47:07.606Z,3.90
2023-01-10T07:49:34.405Z,3.90
2023-01-10T07:52:01.895Z,4.00
2023-01-10T07:54:28.827Z,4.00
2023-01-10T07:56:55.692Z,4.00
2023-01-10T07:59:22.492Z,4.00
2023-01-10T08:01:49.700Z,4.00
2023-01-10T08:04:20.967Z,4.00
2023-01-10T08:06:49.007Z,4.10
2023-01-10T08:09:16.070Z,4.20
2023-01-10T08:11:43.490Z,4.10
2023-01-10T08:14:10.618Z,4.10
2023-01-10T08:16:37.459Z,4.10
2023-01-10T08:19:04.773Z,4.10
2023-01-10T08:21:32.049Z,4.00
2023-01-10T08:24:04.617Z,4.00
2023-01-10T08:26:34.260Z,4.00
2023-01-10T08:29:01.380Z,4.00
2023-01-10T08:31:28.633Z,3.90
2023-01-10T08:33:56.841Z,3.90
2023-01-10T08:36:24.334Z,4.00
2023-01-10T08:38:51.295Z,4.20
2023-01-10T08:41:18.137Z,4.20
2023-01-10T08:43:45.079Z,4.10
2023-01-10T08:46:12.617Z,4.10
2023-01-10T08:48:39.550Z,4.30
2023-01-10T08:51:08.850Z,4.40
2023-01-10T08:53:36.199Z,4.30
2023-01-10T08:56:05.636Z,4.20
2023-01-10T08:58:32.687Z,4.20
2023-01-10T09:00:59.644Z,4.20
2023-01-10T09:03:26.516Z,4.30
2023-01-10T09:05:53.406Z,4.20
2023-01-10T09:08:20.526Z,4.20
2023-01-10T09:10:48.486Z,4.20
2023-01-10T09:13:15.714Z,4.30
2023-01-10T09:15:43.491Z,4.20
2023-01-10T09:18:14.700Z,4.00
2023-01-10T09:20:42.928Z,3.80
2023-01-10T09:23:17.867Z,3.60
2023-01-10T09:25:46.099Z,3.60
2023-01-10T09:28:13.405Z,3.70
2023-01-10T09:30:40.735Z,3.80
2023-01-10T09:33:07.991Z,3.90
2023-01-10T09:35:43.143Z,4.10
2023-01-10T09:38:19.489Z,4.30
2023-01-10T09:41:10.580Z,4.60
2023-01-10T09:43:51.834Z,5.00
2023-01-10T09:46:55.946Z,5.50
2023-01-10T09:49:47.558Z,5.80
2023-01-10T09:52:39.974Z,5.70
2023-01-10T09:55:20.895Z,5.90
2023-01-10T09:57:48.924Z,5.90
2023-01-10T10:00:23.029Z,5.90
2023-01-10T10:02:52.994Z,6.00
2023-01-10T10:05:26.797Z,6.00
2023-01-10T10:07:58.974Z,5.90
2023-01-10T10:10:27.686Z,5.70
2023-01-10T10:13:26.456Z,5.60
2023-01-10T10:16:21.605Z,5.60
2023-01-10T10:19:31.830Z,5.60
2023-01-10T10:22:13.960Z,5.50
2023-01-10T10:24:55.950Z,5.60
2023-01-10T10:27:24.122Z,5.50
2023-01-10T10:30:24.247Z,5.70
2023-01-10T10:32:57.984Z,5.60
2023-01-10T10:35:34.888Z,5.80
2023-01-10T10:41:38.935Z,5.90
2023-01-10T10:44:36.504Z,6.00
2023-01-10T10:47:03.403Z,6.20
2023-01-10T10:50:04.311Z,6.30
2023-01-10T10:52:34.825Z,6.30
2023-01-10T10:55:06.651Z,6.40
2023-01-10T10:57:38.580Z,6.60
2023-01-10T11:00:11.429Z,7.10
2023-01-10T11:02:49.905Z,7.30
2023-01-10T11:05:25.864Z,7.40
2023-01-10T11:07:55.173Z,7.20
2023-01-10T11:10:36.935Z,6.90
2023-01-10T11:13:17.788Z,7.00
2023-01-10T11:15:47.342Z,6.80
2023-01-10T11:18:20.732Z,6.80
2023-01-10T11:21:04.883Z,6.40
2023-01-10T11:23:41.227Z,6.40
2023-01-10T11:26:43.460Z,6.40
2023-01-10T11:29:27.367Z,6.20
2023-01-10T11:31:56.861Z,6.30
2023-01-10T11:34:35.680Z,6.40
2023-01-10T11:37:05.609Z,6.40
2023-01-10T11:39:33.369Z,6.20
2023-01-10T11:42:33.143Z,6.20
2023-01-10T11:45:23.577Z,6.10
2023-01-10T11:47:57.404Z,5.90
2023-01-10T11:50:27.508Z,5.80
2023-01-10T11:52:55.733Z,5.80
2023-01-10T11:55:34.992Z,5.80
2023-01-10T11:58:06.347Z,5.80
2023-01-10T12:00:46.694Z,5.90
2023-01-10T12:03:49.528Z,5.90
2023-01-10T12:06:17.914Z,5.90
2023-01-10T12:08:47.730Z,6.00
2023-01-10T12:11:17.424Z,5.80
2023-01-10T12:13:49.632Z,5.80
2023-01-10T12:16:19.386Z,5.90
2023-01-10T12:18:47.086Z,6.20
2023-01-10T12:21:19.491Z,6.40
2023-01-10T12:23:49.559Z,6.90
2023-01-10T12:26:16.515Z,7.60
2023-01-10T12:28:52.501Z,7.90
2023-01-10T12:31:21.699Z,7.70
2023-01-10T12:34:13.326Z,7.70
2023-01-10T12:36:59.429Z,7.50
2023-01-10T12:39:36.125Z,7.30
2023-01-10T12:42:32.666Z,7.00
2023-01-10T12:45:24.749Z,7.00
2023-01-10T12:48:15.416Z,6.80
2023-01-10T12:50:45.092Z,6.90
2023-01-10T12:53:24.464Z,6.70
2023-01-10T12:55:56.859Z,6.90
2023-01-10T12:58:44.322Z,6.90
2023-01-10T13:01:16.280Z,6.90
2023-01-10T13:03:44.294Z,7.10
2023-01-10T13:06:35.283Z,7.00
2023-01-10T13:09:08.278Z,6.70
2023-01-10T13:11:44.970Z,6.50
2023-01-10T13:14:15.283Z,6.50
2023-01-10T13:16:57.984Z,6.70
2023-01-10T13:19:28.001Z,7.10
2023-01-10T13:22:35.808Z,7.30
2023-01-10T13:25:03.417Z,7.20
2023-01-10T13:27:35.472Z,7.10
2023-01-10T13:30:04.130Z,6.90
2023-01-10T13:32:35.004Z,6.70
2023-01-10T13:35:18.075Z,6.60
2023-01-10T13:37:50.895Z,6.40
2023-01-10T13:40:28.268Z,6.20
2023-01-10T13:43:36.771Z,6.30
2023-01-10T13:46:19.130Z,6.40
2023-01-10T13:49:00.144Z,6.60
2023-01-10T13:51:27.950Z,6.60
2023-01-10T13:54:22.047Z,6.40
2023-01-10T13:56:48.809Z,6.30
2023-01-10T13:59:43.622Z,6.20
2023-01-10T14:02:28.887Z,6.10
2023-01-10T14:05:00.524Z,6.30
2023-01-10T14:07:48.316Z,6.10
2023-01-10T14:10:25.969Z,6.40
2023-01-10T14:13:09.300Z,6.40
2023-01-10T14:15:45.893Z,6.30
2023-01-10T14:18:39.099Z,6.30
2023-01-10T14:21:08.566Z,6.30
2023-01-10T14:23:41.637Z,6.10
2023-01-10T14:26:27.094Z,6.10
2023-01-10T14:28:54.029Z,6.10
2023-01-10T14:31:23.449Z,6.10
2023-01-10T14:33:51.331Z,6.20
2023-01-10T14:36:29.574Z,6.10
2023-01-10T14:39:00.036Z,6.10
2023-01-10T14:41:41.689Z,6.20
2023-01-10T14:44:27.387Z,6.50
2023-01-10T14:46:56.539Z,7.50
2023-01-10T14:49:25.308Z,7.80
2023-01-10T14:51:53.709Z,8.10
2023-01-10T14:54:24.798Z,8.10
2023-01-10T14:56:53.188Z,7.90
2023-01-10T14:59:29.100Z,7.90
2023-01-10T15:01:58.812Z,7.60
2023-01-10T15:04:33.724Z,7.20
2023-01-10T15:07:12.549Z,6.80
2023-01-10T15:09:39.485Z,6.70
2023-01-10T15:12:12.464Z,6.50
2023-01-10T15:14:39.401Z,6.30
2023-01-10T15:17:09.140Z,6.10
2023-01-10T15:19:38.963Z,5.90
2023-01-10T15:22:28.393Z,5.80
2023-01-10T15:25:06.428Z,5.80
2023-01-10T15:27:34.011Z,5.70
2023-01-10T15:30:01.425Z,5.60
2023-01-10T15:32:41.406Z,5.60
2023-01-10T15:35:15.726Z,5.60
2023-01-10T15:37:57.887Z,5.60
2023-01-10T15:40:32.921Z,5.50
2023-01-10T15:43:18.080Z,5.40
2023-01-10T15:45:46.525Z,5.30
2023-01-10T15:48:41.139Z,5.20
2023-01-10T15:51:26.882Z,5.10
2023-01-10T15:54:04.111Z,5.00
2023-01-10T15:56:39.125Z,5.00
2023-01-10T15:59:26.185Z,5.00
2023-01-10T16:01:59.025Z,5.00
2023-01-10T16:04:26.275Z,5.10
2023-01-10T16:07:04.842Z,5.00
2023-01-10T16:09:31.861Z,4.90
2023-01-10T16:12:17.188Z,4.70
2023-01-10T16:14:43.995Z,4.60
2023-01-10T16:17:12.539Z,4.50
2023-01-10T16:19:39.382Z,4.40
2023-01-10T16:22:07.410Z,4.30
2023-01-10T16:24:36.386Z,4.20
2023-01-10T16:27:06.015Z,4.10
2023-01-10T16:29:33.825Z,4.00
2023-01-10T16:32:00.727Z,3.90
2023-01-10T16:34:27.551Z,3.90
2023-01-10T16:36:54.508Z,3.80
2023-01-10T16:39:23.650Z,4.00
2023-01-10T16:42:08.940Z,4.00
2023-01-10T16:44:35.996Z,3.90
2023-01-10T16:47:05.677Z,3.90
2023-01-10T16:49:34.010Z,4.10
2023-01-10T16:52:00.892Z,4.00
2023-01-10T16:54:28.358Z,4.00
2023-01-10T16:56:55.913Z,3.90
2023-01-10T16:59:22.821Z,3.80
2023-01-10T17:01:59.144Z,3.70
2023-01-10T17:04:30.677Z,3.50
2023-01-10T17:06:57.531Z,3.40
2023-01-10T17:09:27.062Z,3.30
2023-01-10T17:12:04.233Z,3.20
2023-01-10T17:14:33.792Z,3.20
2023-01-10T17:17:02.162Z,3.10
2023-01-10T17:19:29.054Z,3.10
2023-01-10T17:21:55.882Z,3.00
2023-01-10T17:24:22.930Z,3.00
2023-01-10T17:26:49.809Z,2.90
2023-01-10T17:29:16.562Z,2.90
2023-01-10T17:31:43.377Z,2.90
2023-01-10T17:34:10.183Z,2.90
2023-01-10T17:36:39.604Z,2.90
2023-01-10T17:39:06.797Z,2.90
2023-01-10T17:41:34.233Z,2.80
2023-01-10T17:44:01.384Z,2.70
2023-01-10T17:46:28.220Z,2.70
2023-01-10T17:48:55.007Z,2.70
2023-01-10T17:51:24.653Z,2.70
2023-01-10T17:53:54.225Z,2.70
2023-01-10T17:56:21.168Z,2.60
2023-01-10T17:58:48.443Z,2.60
2023-01-10T18:01:24.665Z,2.50
2023-01-10T18:03:52.612Z,2.50
2023-01-10T18:06:24.314Z,2.50
2023-01-10T18:08:51.531Z,2.50
2023-01-10T18:11:18.385Z,2.50
2023-01-10T18:13:45.285Z,2.50
2023-01-10T18:16:12.186Z,2.40
2023-01-10T18:18:39.133Z,2.40
2023-01-10T18:21:13.647Z,2.30
2023-01-10T18:23:40.472Z,2.20
2023-01-10T18:26:10.141Z,2.20
2023-01-10T18:28:43.119Z,2.20
2023-01-10T18:31:19.654Z,2.20
2023-01-10T18:33:48.237Z,2.20
2023-01-10T18:36:18.135Z,2.20
2023-01-10T18:38:46.093Z,2.30
2023-01-10T18:41:16.906Z,2.30
2023-01-10T18:43:43.949Z,2.40
2023-01-10T18:46:19.853Z,2.30
2023-01-10T18:48:47.640Z,2.40
2023-01-10T18:51:14.866Z,2.30
2023-01-10T18:53:43.738Z,2.30
2023-01-10T18:56:11.545Z,2.30
2023-01-10T18:58:40.784Z,2.30
2023-01-10T19:01:10.669Z,2.30
2023-01-10T19:03:38.080Z,2.20
2023-01-10T19:06:07.338Z,2.20
2023-01-10T19:08:34.202Z,2.10
2023-01-10T19:11:12.783Z,2.00
2023-01-10T19:13:41.214Z,2.00
2023-01-10T19:16:24.601Z,2.00
2023-01-10T19:18:54.473Z,1.90
2023-01-10T19:21:22.212Z,1.80
2023-01-10T19:23:51.656Z,1.70
2023-01-10T19:26:18.843Z,1.70
2023-01-10T19:28:46.167Z,1.70
2023-01-10T19:31:24.532Z,1.60
2023-01-10T19:33:52.394Z,1.60
2023-01-10T19:36:21.809Z,1.60
2023-01-10T19:38:48.985Z,1.60
2023-01-10T19:41:16.121Z,1.50
2023-01-10T19:43:42.999Z,1.50
2023-01-10T19:46:12.043Z,1.50
2023-01-10T19:48:39.787Z,1.50
2023-01-10T19:51:12.152Z,1.40
2023-01-10T19:53:46.115Z,1.40
2023-01-10T19:56:19.659Z,1.30
2023-01-10T19:58:46.735Z,1.30
2023-01-10T20:01:16.932Z,1.30
2023-01-10T20:03:46.658Z,1.30
2023-01-10T20:06:18.573Z,1.20
2023-01-10T20:08:46.499Z,1.20
2023-01-10T20:11:14.472Z,1.10
2023-01-10T20:13:45.762Z,1.10
2023-01-10T20:16:13.998Z,1.10
2023-01-10T20:18:41.510Z,1.10
2023-01-10T20:21:10.530Z,1.10
2023-01-10T20:23:38.861Z,1.10
2023-01-10T20:26:17.433Z,1.00
2023-01-10T20:28:45.772Z,1.10
2023-01-10T20:31:16.125Z,1.10
2023-01-10T20:33:42.995Z,1.10
2023-01-10T20:36:13.538Z,1.00
2023-01-10T20:38:40.479Z,1.00
2023-01-10T20:41:11.548Z,1.00
2023-01-10T20:43:38.704Z,0.90
2023-01-10T20:46:11.111Z,0.80
2023-01-10T20:48:39.154Z,0.80
2023-01-10T20:51:06.809Z,0.80
2023-01-10T20:53:33.931Z,0.70
2023-01-10T20:56:11.081Z,0.70
2023-01-10T20:58:39.695Z,0.70
2023-01-10T21:01:07.579Z,0.70
2023-01-10T21:03:34.594Z,0.70
2023-01-10T21:06:02.183Z,0.80
2023-01-10T21:08:31.769Z,0.80
2023-01-10T21:10:58.832Z,0.80
2023-01-10T21:13:26.105Z,0.90
2023-01-10T21:15:57.494Z,0.90
2023-01-10T21:18:27.038Z,0.90
2023-01-10T21:20:56.031Z,1.00
2023-01-10T21:23:25.382Z,1.00
2023-01-10T21:25:53.491Z,1.00
2023-01-10T21:28:21.058Z,1.10
2023-01-10T21:30:47.953Z,1.10
2023-01-10T21:33:14.781Z,1.20
2023-01-10T21:35:41.656Z,1.20
2023-01-10T21:38:09.178Z,1.30
2023-01-10T21:40:35.994Z,1.30
2023-01-10T21:43:02.896Z,1.30
2023-01-10T21:45:29.788Z,1.30
2023-01-10T21:47:56.579Z,1.40
2023-01-10T21:50:23.587Z,1.40
2023-01-10T21:52:50.610Z,1.40
2023-01-10T21:55:17.881Z,1.40
2023-01-10T21:57:44.683Z,1.40
2023-01-10T22:00:12.179Z,1.40
2023-01-10T22:02:38.953Z,1.40
2023-01-10T22:05:06.387Z,1.40
2023-01-10T22:07:33.259Z,1.40
2023-01-10T22:10:00.073Z,1.40
2023-01-10T22:12:27.797Z,1.40
2023-01-10T22:14:54.606Z,1.40
2023-01-10T22:17:21.411Z,1.40
2023-01-10T22:19:48.342Z,1.40
2023-01-10T22:22:16.209Z,1.40
2023-01-10T22:24:46.675Z,1.30
2023-01-10T22:27:14.366Z,1.30
2023-01-10T22:29:41.768Z,1.30
2023-01-10T22:32:08.999Z,1.30
2023-01-10T22:34:35.821Z,1.30
2023-01-10T22:37:02.849Z,1.20
2023-01-10T22:39:29.654Z,1.20
2023-01-10T22:41:56.688Z,1.30
2023-01-10T22:44:26.648Z,1.30
2023-01-10T22:46:55.262Z,1.40
2023-01-10T22:49:22.802Z,1.30
2023-01-10T22:51:50.215Z,1.40
2023-01-10T22:54:17.813Z,1.40
2023-01-10T22:56:46.247Z,1.50
2023-01-10T22:59:13.832Z,1.50
2023-01-10T23:01:40.823Z,1.60
2023-01-10T23:04:07.898Z,1.60
2023-01-10T23:06:34.941Z,1.60
2023-01-10T23:09:01.839Z,1.60
2023-01-10T23:11:28.802Z,1.70
2023-01-10T23:13:55.658Z,1.70
2023-01-10T23:16:32.569Z,1.70
2023-01-10T23:19:00.438Z,1.80
2023-01-10T23:21:29.335Z,1.80
2023-01-10T23:23:56.951Z,1.90
2023-01-10T23:26:24.187Z,2.00
2023-01-10T23:28:51.852Z,2.00
2023-01-10T23:31:22.153Z,2.10
2023-01-10T23:33:50.293Z,2.10
2023-01-10T23:36:17.864Z,2.10
2023-01-10T23:38:44.749Z,2.10
2023-01-10T23:41:12.262Z,2.10
2023-01-10T23:43:39.163Z,2.20
2023-01-10T23:46:07.128Z,2.20
2023-01-10T23:48:34.476Z,2.20
2023-01-10T23:51:01.380Z,2.20
2023-01-10T23:53:28.412Z,2.30
2023-01-10T23:55:55.350Z,2.40
2023-01-10T23:58:22.162Z,2.50
